EDT,Max TemperatureF,Mean TemperatureF,Min TemperatureF,Max Dew PointF,MeanDew PointF,Min DewpointF,Max Humidity, Mean Humidity, Min Humidity, Max Sea Level PressureIn, Mean Sea Level PressureIn, Min Sea Level PressureIn, Max VisibilityMiles, Mean VisibilityMiles, Min VisibilityMiles, Max Wind SpeedMPH, Mean Wind SpeedMPH, Max Gust SpeedMPH,PrecipitationIn, CloudCover, Events, WindDirDegrees
2013-5-1,77,64,54,49,45,35,80,52,32,30.31,30.27,30.20,10,10,10,8,5,22,0.00,0,,117
2013-5-2,77,66,54,39,31,22,45,30,14,30.36,30.29,30.22,10,10,10,7,4,,0.00,0,,100
2013-5-3,75,63,53,40,37,32,55,38,24,30.25,30.21,30.16,10,10,10,10,4,23,0.00,0,,128
2013-5-4,72,60,48,40,37,31,71,43,23,30.22,30.17,30.11,10,10,10,9,4,17,0.00,0,,137
2013-5-5,75,62,52,39,30,16,61,34,11,30.16,30.10,30.04,10,10,10,12,4,21,0.00,0,,121
2013-5-6,73,60,48,49,38,24,69,45,29,30.11,30.07,30.01,10,10,10,8,4,,0.00,0,,105
2013-5-7,75,64,55,50,48,44,80,57,35,30.07,30.02,29.97,10,10,10,10,4,,0.00,3,,95
2013-5-8,68,60,55,56,53,49,94,77,57,30.01,29.98,29.95,10,9,2,8,4,16,0.21,6,Rain,40
2013-5-9,75,63,53,57,51,34,100,81,27,30.00,29.96,29.92,10,5,0,10,2,18,0.01,6,Fog-Rain,291
2013-5-10,73,64,57,59,54,37,100,79,41,29.98,29.85,29.76,10,8,2,20,5,34,0.61,7,Rain,205
2013-5-11,60,51,42,57,45,40,100,91,80,29.85,29.81,29.75,10,5,0,13,7,28,0.09,8,Fog-Rain,263
2013-5-12,48,40,34,43,33,26,93,76,48,30.06,29.91,29.81,10,10,6,17,12,31,0.03,7,Rain,271
2013-5-13,46,38,32,27,25,23,73,59,43,30.19,30.12,30.04,10,10,10,14,6,20,0.00,5,,283
2013-5-14,50,41,32,37,31,25,79,60,41,30.18,30.08,29.90,10,10,10,7,4,,0.00,5,Rain,164
2013-5-15,81,64,48,58,47,36,81,55,35,29.88,29.76,29.70,10,10,10,20,7,30,0.07,1,Rain,244
2013-5-16,75,64,52,50,44,38,86,51,25,30.00,29.88,29.77,10,10,10,13,3,22,0.00,0,,334
2013-5-17,75,60,46,45,41,38,83,51,31,30.16,30.10,30.01,10,10,10,10,4,,0.00,0,,27
2013-5-18,80,68,55,56,45,39,73,47,28,30.18,30.12,30.06,10,10,10,9,6,,0.00,2,,85
2013-5-19,80,68,59,60,58,55,87,69,52,30.11,30.05,29.99,10,10,9,12,4,,0.00,3,,200
2013-5-20,84,72,61,64,61,58,90,69,51,30.03,29.97,29.90,10,10,10,10,4,,0.00,1,,194
2013-5-21,84,76,68,67,63,59,90,69,43,29.96,29.87,29.80,10,8,3,13,6,22,0.00,1,,200
2013-5-22,84,75,66,64,61,55,90,67,43,29.85,29.79,29.72,10,9,2,17,7,26,0.18,3,Rain,200
2013-5-23,72,58,44,63,57,42,100,88,63,29.94,29.81,29.75,10,6,0,16,7,22,0.34,8,Fog-Rain,264
2013-5-24,44,40,35,41,35,30,93,81,61,30.30,30.19,29.97,10,9,2,14,9,22,0.02,7,Rain,324
2013-5-25,57,46,34,38,33,28,93,64,37,30.33,30.29,30.25,10,9,4,15,6,24,0.01,0,,298
2013-5-26,62,49,37,40,34,31,89,57,34,30.30,30.27,30.24,10,10,10,12,3,18,0.00,0,,320
2013-5-27,66,52,39,44,38,33,86,59,33,30.29,30.23,30.13,10,10,10,9,2,,0.02,2,Rain,176
2013-5-28,75,63,51,66,58,46,94,85,66,30.13,30.02,29.94,10,7,1,10,5,18,1.09,7,Rain,194
2013-5-29,82,74,68,66,61,58,81,66,54,30.07,30.01,29.95,10,10,10,10,6,24,0.00,4,,215
2013-5-30,82,74,66,66,61,58,79,64,42,30.17,30.12,30.08,10,10,10,8,5,,0.00,0,,209
2013-5-31,82,74,66,64,62,60,79,68,49,30.10,30.09,30.04,10,10,10,13,3,18,0.00,0,,200